Portada
METAR-TAF:

METAR-TAF

Aeroports :

Aeroport de la Ciutat de Londres

Londres, Anglaterra

latitud: 51-30N, longitud: 000-03E, altitud: 5 m

Observació

L'informe es va fer fa 35 minuts, a les 19:20 UTC
Vent 8 kt del Est
Temperatura 5°C
Humitat 60%
Pressió 1034 hPa
Visibilitat 10 km o més
Núvols disperses a una alçada de 4000 ft

METAR: EGLC 051920Z 09008KT 9999 SCT040 05/M02 Q1034

Hora: 19:55 (19:55 UTC)

Pronòstic

L'informe es va fer fa 2 hores i 51 minuts, a les 17:04 UTC
Pronòstic vàlid del 05 a les 18 UTC al 05 a les 22 UTC
Vent 9 kt del Nord-Est
Visibilitat 10 km o més
Núvols disperses a una alçada de 4000 ft

TAF: EGLC 051704Z 0518/0522 05009KT 9999 SCT040

Observacions i pronòstics meteorològics de més de 4000 aeroports (METAR i TAF).

Les estacions disponibles són els punts grocs i vermells al mapa.

Posi el ratolí al punt desitjat per veure el nom de l'estació.

Feu clic per veure les observacions i els pronòstics meteorològics.

Per canviar el mapa: feu clic els botons verds amb una creu de color negre per apropar; al botó verd amb un guió per allunyar la imatge; o en les fletxes verdes per a mapes adjacents.


METAR-TAF: